Time;durP1;ratioP1;P1;durP2;ratioP2;P2;SDS_P1;SDS_P2;PMS_P1;PMS_P2;Temp;Humidity;BMP_temperature;BMP_pressure;BME280_temperature;BME280_humidity;BME280_pressure;Samples;Min_cycle;Max_cycle;Signal;HPM_P1;HPM_P2
2021/03/22 00:00:21;;;;;;;20.92;14.35;;;;;;;7.32;42.27;99934.68;1723220;83;21102;-76
2021/03/22 00:02:49;;;;;;;23.90;14.95;;;;;;;7.33;42.19;99935.52;1723333;83;21098;-76
2021/03/22 00:05:18;;;;;;;22.20;14.80;;;;;;;7.32;42.18;99934.68;1723211;83;21153;-75
2021/03/22 00:07:45;;;;;;;26.73;14.73;;;;;;;7.32;42.25;99941.84;1723195;83;21145;-76
2021/03/22 00:10:14;;;;;;;19.40;12.88;;;;;;;7.30;42.19;99933.14;1749592;81;21077;-76
2021/03/22 00:12:42;;;;;;;25.55;15.20;;;;;;;7.46;41.96;99931.16;1749941;82;21097;-76
2021/03/22 00:15:14;;;;;;;25.12;15.40;;;;;;;7.58;41.68;99931.26;1748505;82;21525;-75
2021/03/22 00:17:41;;;;;;;34.33;19.65;;;;;;;7.38;41.96;99931.91;1749734;82;21504;-75
2021/03/22 00:20:10;;;;;;;50.08;25.77;;;;;;;7.48;41.80;99926.00;1759610;80;21595;-76
2021/03/22 00:22:39;;;;;;;54.23;26.75;;;;;;;7.61;41.49;99914.47;1776448;80;21118;-76
2021/03/22 00:25:08;;;;;;;69.25;31.25;;;;;;;7.36;41.93;99911.25;1775731;80;21209;-76
2021/03/22 00:27:36;;;;;;;74.75;32.98;;;;;;;7.32;42.00;99907.20;1782245;80;21119;-77
2021/03/22 00:30:06;;;;;;;49.90;25.88;;;;;;;7.50;41.79;99906.72;1782247;80;21090;-76
2021/03/22 00:32:35;;;;;;;41.25;21.93;;;;;;;7.65;41.53;99899.52;1782106;80;21142;-75
2021/03/22 00:35:07;;;;;;;28.17;17.42;;;;;;;7.67;41.42;99896.19;1782059;80;21174;-75
2021/03/22 00:37:35;;;;;;;28.25;16.75;;;;;;;7.68;41.36;99896.56;1782276;80;21166;-75
2021/03/22 00:40:03;;;;;;;24.47;14.60;;;;;;;7.67;41.29;99890.86;1782386;80;21103;-76
2021/03/22 00:42:30;;;;;;;22.80;14.30;;;;;;;7.69;41.25;99888.90;1782248;80;21110;-76
2021/03/22 00:44:57;;;;;;;;;;;;;;;7.69;41.23;99889.73;1784914;80;21182;-75
2021/03/22 00:47:24;;;;;;;24.12;13.62;;;;;;;7.58;41.43;99889.45;1782148;80;20310;-76
2021/03/22 00:49:52;;;;;;;20.27;13.43;;;;;;;7.66;41.24;99886.53;1781836;79;21163;-76
2021/03/22 00:52:20;;;;;;;20.55;13.58;;;;;;;7.64;41.18;99886.69;1781484;80;21098;-76
2021/03/22 00:54:48;;;;;;;18.00;13.03;;;;;;;7.53;41.31;99885.08;1782298;80;21130;-75
2021/03/22 00:57:15;;;;;;;20.45;14.00;;;;;;;7.58;41.22;99885.95;1753240;79;21640;-75
2021/03/22 00:59:42;;;;;;;;;;;;;;;7.56;41.23;99879.95;1753220;82;21117;-77
2021/03/22 01:02:09;;;;;;;18.05;12.25;;;;;;;7.58;41.25;99880.13;1754035;79;20479;-75
2021/03/22 01:04:36;;;;;;;20.17;12.33;;;;;;;7.18;41.93;99875.27;1748346;80;21577;-76
2021/03/22 01:07:04;;;;;;;17.70;12.30;;;;;;;7.09;42.18;99879.66;1718950;81;21077;-76
2021/03/22 01:09:31;;;;;;;17.98;12.63;;;;;;;7.13;42.03;99874.88;1733059;82;21082;-76
2021/03/22 01:11:59;;;;;;;19.05;12.65;;;;;;;7.08;42.15;99873.97;1733061;82;21094;-76
2021/03/22 01:14:26;;;;;;;20.05;11.75;;;;;;;7.10;42.17;99871.18;1733031;82;21126;-75
2021/03/22 01:16:53;;;;;;;;;;;;;;;7.09;42.14;99867.68;1735696;82;21071;-76
2021/03/22 01:19:24;;;;;;;19.93;12.23;;;;;;;7.12;42.14;99870.02;1733048;82;20243;-77
2021/03/22 01:21:56;;;;;;;17.27;12.28;;;;;;;7.09;42.20;99870.84;1733026;82;21126;-76
2021/03/22 01:24:25;;;;;;;16.12;11.40;;;;;;;7.10;42.19;99872.02;1733494;80;21115;-76
2021/03/22 01:26:56;;;;;;;16.05;11.75;;;;;;;7.09;42.18;99870.34;1772076;81;21090;-75
2021/03/22 01:29:31;;;;;;;18.30;11.85;;;;;;;7.06;42.22;99861.31;1772178;81;21073;-76
2021/03/22 01:32:00;;;;;;;16.35;11.28;;;;;;;7.07;42.24;99864.81;1758001;81;21166;-76
2021/03/22 01:34:29;;;;;;;17.02;11.43;;;;;;;7.06;42.15;99861.31;1716676;82;21165;-76
2021/03/22 01:36:57;;;;;;;17.05;11.18;;;;;;;7.06;42.11;99858.65;1749616;82;21157;-75
2021/03/22 01:39:31;;;;;;;16.25;11.30;;;;;;;7.05;42.03;99855.65;1749646;81;21168;-76
2021/03/22 01:42:19;;;;;;;20.17;12.30;;;;;;;7.02;42.12;99858.60;1782177;80;21161;-75
2021/03/22 01:44:52;;;;;;;17.57;11.18;;;;;;;7.02;42.12;99853.77;1782447;80;21121;-76
2021/03/22 01:47:24;;;;;;;16.15;11.65;;;;;;;7.00;42.17;99847.28;1782402;80;21077;-75
2021/03/22 01:49:56;;;;;;;16.65;11.60;;;;;;;6.98;42.28;99846.58;1782346;80;21093;-76
2021/03/22 01:52:24;;;;;;;26.23;13.65;;;;;;;6.97;42.27;99845.41;1782384;80;21066;-77
2021/03/22 01:54:51;;;;;;;22.07;13.13;;;;;;;6.97;42.28;99841.41;1754417;80;21074;-78
2021/03/22 01:57:34;;;;;;;29.72;15.75;;;;;;;6.96;42.33;99844.57;1754387;80;21133;-77
2021/03/22 02:00:10;;;;;;;30.72;16.35;;;;;;;6.96;42.28;99846.40;1754387;80;21094;-75
2021/03/22 02:02:38;;;;;;;31.27;16.40;;;;;;;6.95;42.34;99834.91;1753971;80;21149;-75
2021/03/22 02:05:09;;;;;;;31.23;16.87;;;;;;;6.96;42.28;99844.57;1754254;80;21129;-75
2021/03/22 02:07:38;;;;;;;30.02;18.48;;;;;;;6.98;42.29;99842.58;1782382;80;21101;-77
2021/03/22 02:10:07;;;;;;;;;;;;;;;6.97;42.26;99839.58;1756940;80;21196;-74
2021/03/22 02:12:34;;;;;;;29.60;17.30;;;;;;;6.97;42.23;99834.25;1782702;80;20517;-76
2021/03/22 02:15:01;;;;;;;29.72;17.02;;;;;;;6.96;42.24;99832.59;1784090;80;21117;-75
2021/03/22 02:17:38;;;;;;;26.80;15.08;;;;;;;6.95;42.31;99828.72;1783297;80;21106;-75
2021/03/22 02:20:16;;;;;;;20.77;13.72;;;;;;;6.94;42.30;99829.22;1782387;80;21185;-75
2021/03/22 02:23:27;;;;;;;23.27;13.90;;;;;;;6.94;42.37;99830.55;1782468;80;21085;-77
2021/03/22 02:26:22;;;;;;;20.02;12.70;;;;;;;6.94;42.26;99827.89;1782297;80;21172;-77
2021/03/22 02:29:25;;;;;;;22.37;13.53;;;;;;;6.91;42.24;99818.89;1782324;80;21121;-76
2021/03/22 02:32:48;;;;;;;25.10;14.18;;;;;;;6.93;42.20;99824.06;1782120;80;21074;-76
2021/03/22 02:35:39;;;;;;;25.55;14.65;;;;;;;6.91;42.28;99820.22;1782321;80;21167;-76
2021/03/22 02:38:26;;;;;;;23.47;14.00;;;;;;;6.88;42.22;99813.86;1754804;80;21128;-76
2021/03/22 02:41:00;;;;;;;22.52;14.78;;;;;;;6.88;42.20;99813.86;1782501;80;21098;-77
2021/03/22 02:43:34;;;;;;;24.27;14.28;;;;;;;6.88;42.26;99813.02;1774270;80;21125;-77
2021/03/22 02:46:02;;;;;;;26.12;15.10;;;;;;;6.86;42.35;99813.19;1782393;80;21497;-77
2021/03/22 02:48:31;;;;;;;23.38;14.43;;;;;;;6.86;42.34;99809.20;1782424;80;21128;-77
2021/03/22 02:51:16;;;;;;;27.80;15.95;;;;;;;6.85;42.29;99809.66;1782359;80;21141;-77
2021/03/22 02:53:48;;;;;;;33.08;14.15;;;;;;;6.84;42.29;99805.33;1782430;80;21505;-76
2021/03/22 02:56:27;;;;;;;37.85;16.17;;;;;;;6.83;42.25;99800.17;1781912;80;21196;-77
2021/03/22 02:59:22;;;;;;;21.65;14.58;;;;;;;6.84;42.25;99801.83;1782277;80;21085;-76
2021/03/22 03:01:53;;;;;;;27.15;16.17;;;;;;;6.83;42.24;99794.34;1782208;80;21046;-77
2021/03/22 03:04:22;;;;;;;25.35;15.83;;;;;;;6.84;42.28;99796.52;1782318;80;21062;-76
2021/03/22 03:06:55;;;;;;;24.45;15.00;;;;;;;6.83;42.22;99793.02;1782296;80;21145;-76
2021/03/22 03:09:33;;;;;;;26.52;14.80;;;;;;;6.83;42.23;99796.17;1782389;80;21082;-76
2021/03/22 03:12:19;;;;;;;39.10;16.12;;;;;;;6.83;42.19;99795.67;1782350;80;21042;-77
2021/03/22 03:14:50;;;;;;;38.38;16.48;;;;;;;6.83;42.23;99786.86;1782438;80;21110;-77
2021/03/22 03:17:18;;;;;;;25.27;15.70;;;;;;;6.83;42.19;99785.52;1782370;80;21181;-77
2021/03/22 03:19:46;;;;;;;35.75;19.00;;;;;;;6.83;42.20;99792.18;1782331;80;21157;-77
2021/03/22 03:22:14;;;;;;;40.75;18.90;;;;;;;6.82;42.20;99787.85;1782355;80;21409;-76
2021/03/22 03:24:41;;;;;;;34.03;18.07;;;;;;;6.82;42.28;99792.67;1782325;80;21082;-76
2021/03/22 03:27:12;;;;;;;29.85;16.73;;;;;;;6.79;42.25;99782.81;1782350;80;21070;-77
2021/03/22 03:29:40;;;;;;;34.00;16.85;;;;;;;6.79;42.21;99782.81;1782370;80;21094;-78
2021/03/22 03:32:11;;;;;;;39.03;18.50;;;;;;;6.79;42.20;99781.48;1782211;80;21144;-76
2021/03/22 03:34:38;;;;;;;57.20;19.10;;;;;;;6.79;42.21;99786.81;1782224;80;21599;-75
2021/03/22 03:37:07;;;;;;;32.48;16.62;;;;;;;6.77;42.25;99788.30;1782278;80;21113;-77
2021/03/22 03:39:35;;;;;;;32.90;16.75;;;;;;;6.76;42.28;99780.45;1782278;80;21213;-77
2021/03/22 03:42:05;;;;;;;30.95;16.55;;;;;;;6.77;42.18;99784.81;1779732;80;21089;-77
2021/03/22 03:44:33;;;;;;;32.80;17.07;;;;;;;6.75;42.21;99784.10;1783010;80;21022;-75
2021/03/22 03:47:00;;;;;;;24.55;15.90;;;;;;;6.74;42.17;99783.27;1782114;80;21153;-76
2021/03/22 03:49:27;;;;;;;;;;;;;;;6.72;42.10;99784.39;1784782;80;21129;-77
2021/03/22 03:51:54;;;;;;;29.25;17.75;;;;;;;6.72;42.07;99776.41;1781194;80;20269;-76
2021/03/22 03:54:21;;;;;;;31.55;19.30;;;;;;;6.70;42.07;99777.06;1781726;80;21066;-75
2021/03/22 03:56:49;;;;;;;33.65;21.10;;;;;;;6.65;42.13;99770.86;1779918;80;21180;-75
2021/03/22 03:59:16;;;;;;;40.43;21.85;;;;;;;6.64;42.16;99773.19;1764504;80;21097;-76
2021/03/22 04:01:45;;;;;;;66.90;31.02;;;;;;;6.63;42.24;99777.30;1782192;80;21184;-77
2021/03/22 04:04:12;;;;;;;76.65;35.78;;;;;;;6.56;42.34;99772.59;1782097;80;21070;-77
2021/03/22 04:06:40;;;;;;;75.67;35.38;;;;;;;6.51;42.38;99764.72;1781816;80;21130;-76
2021/03/22 04:09:10;;;;;;;64.87;31.55;;;;;;;6.46;42.47;99765.66;1782200;80;21125;-77
2021/03/22 04:11:46;;;;;;;55.23;28.15;;;;;;;6.54;42.32;99770.59;1782026;80;21157;-75
2021/03/22 04:14:24;;;;;;;58.65;31.60;;;;;;;6.56;42.16;99763.28;1782532;80;21023;-76
2021/03/22 04:16:52;;;;;;;48.00;26.93;;;;;;;6.47;42.38;99760.69;1782569;80;21149;-74
2021/03/22 04:19:19;;;;;;;51.00;24.55;;;;;;;6.48;42.40;99762.34;1781200;80;21208;-75
2021/03/22 04:21:47;;;;;;;45.95;24.32;;;;;;;6.54;42.39;99763.07;1757678;80;21205;-76
2021/03/22 04:24:16;;;;;;;46.92;23.70;;;;;;;6.60;42.28;99763.33;1712844;82;21213;-77
2021/03/22 04:26:43;;;;;;;40.52;23.38;;;;;;;6.67;42.22;99760.06;1761282;80;21071;-78
2021/03/22 04:29:10;;;;;;;;;;;;;;;6.71;42.14;99757.44;1760929;80;21217;-76
2021/03/22 04:31:37;;;;;;;36.38;20.48;;;;;;;6.76;42.13;99759.16;1778761;80;20257;-76
2021/03/22 04:34:05;;;;;;;38.02;21.80;;;;;;;6.77;42.14;99760.36;1703244;80;21234;-76
2021/03/22 04:36:35;;;;;;;42.00;22.87;;;;;;;6.82;42.13;99751.42;1768839;80;21181;-78
2021/03/22 04:39:06;;;;;;;42.78;24.37;;;;;;;6.79;42.15;99749.05;1749651;81;21169;-75
2021/03/22 04:41:35;;;;;;;36.68;23.42;;;;;;;6.78;42.27;99752.70;1738315;81;21528;-76
2021/03/22 04:44:03;;;;;;;41.80;22.93;;;;;;;6.82;42.35;99751.92;1738382;82;21173;-77
2021/03/22 04:46:30;;;;;;;37.78;20.97;;;;;;;6.83;42.48;99746.92;1740132;82;21194;-75
2021/03/22 04:49:02;;;;;;;28.60;18.82;;;;;;;6.86;42.59;99746.14;1757291;81;21140;-77
2021/03/22 04:51:29;;;;;;;35.28;21.87;;;;;;;6.95;42.59;99756.84;1739329;82;21133;-78
2021/03/22 04:53:56;;;;;;;119.95;59.53;;;;;;;6.96;42.64;99748.72;1739510;82;21154;-77
2021/03/22 04:56:24;;;;;;;231.82;103.80;;;;;;;6.97;42.73;99749.55;1740633;81;21173;-77
2021/03/22 04:58:51;;;;;;;300.82;129.65;;;;;;;7.00;42.67;99743.94;1750767;80;21192;-75
2021/03/22 05:01:18;;;;;;;251.37;106.17;;;;;;;7.02;42.69;99742.77;1734957;81;21209;-75
2021/03/22 05:03:46;;;;;;;198.75;90.35;;;;;;;7.07;42.69;99747.14;1780139;80;21168;-76
2021/03/22 05:06:13;;;;;;;111.52;55.90;;;;;;;7.12;42.56;99750.18;1732036;81;21138;-76
2021/03/22 05:08:41;;;;;;;76.75;35.13;;;;;;;7.18;42.34;99769.23;1753383;81;21213;-79
2021/03/22 05:11:07;;;;;;;;;;;;;;;7.26;42.37;99760.78;1776763;80;21221;-77
2021/03/22 05:13:35;;;;;;;38.08;21.35;;;;;;;7.34;42.15;99756.86;1763270;80;20541;-77
2021/03/22 05:16:03;;;;;;;;;;;;;;;7.41;41.98;99756.26;1760105;80;21209;-79
2021/03/22 05:18:31;;;;;;;32.08;20.23;;;;;;;7.45;41.81;99754.93;1748776;82;20302;-75
2021/03/22 05:21:03;;;;;;;30.48;18.62;;;;;;;7.48;41.71;99754.63;1748212;81;21209;-75
2021/03/22 05:23:31;;;;;;;27.93;17.30;;;;;;;7.53;41.61;99748.33;1728249;81;21149;-74
2021/03/22 05:25:58;;;;;;;24.87;16.73;;;;;;;7.55;41.35;99752.53;1742561;82;21209;-78
2021/03/22 05:28:28;;;;;;;23.18;16.20;;;;;;;7.55;41.28;99751.20;1746678;82;21691;-76
2021/03/22 05:30:56;;;;;;;27.35;16.30;;;;;;;7.55;41.26;99754.36;1770698;80;21193;-80
2021/03/22 05:33:24;;;;;;;25.17;16.07;;;;;;;7.85;40.83;99746.37;1774171;80;21168;-75
2021/03/22 05:35:56;;;;;;;30.72;17.05;;;;;;;7.89;40.72;99743.73;1767560;80;21519;-77
2021/03/22 05:38:25;;;;;;;27.27;16.35;;;;;;;7.89;40.70;99737.06;1742375;81;21165;-77
2021/03/22 05:40:56;;;;;;;30.25;15.72;;;;;;;7.94;40.71;99736.09;1740329;80;21167;-76
2021/03/22 05:43:49;;;;;;;31.30;16.87;;;;;;;7.93;40.63;99730.42;1772379;80;21129;-76
2021/03/22 05:46:49;;;;;;;27.20;15.98;;;;;;;7.92;40.77;99734.09;1721985;81;21481;-76
2021/03/22 05:49:47;;;;;;;49.35;20.60;;;;;;;7.95;40.95;99736.45;1733269;80;21144;-76
2021/03/22 05:52:54;;;;;;;40.92;18.42;;;;;;;8.01;41.05;99734.97;1731121;82;21209;-76
2021/03/22 05:55:38;;;;;;;32.73;16.05;;;;;;;8.08;41.09;99727.52;1720586;81;21687;-76
2021/03/22 05:58:43;;;;;;;29.67;16.17;;;;;;;8.15;40.88;99733.03;1745313;81;21765;-76
2021/03/22 06:01:27;;;;;;;23.85;14.73;;;;;;;8.20;40.86;99731.21;1724690;82;21637;-77
2021/03/22 06:04:03;;;;;;;26.50;15.90;;;;;;;8.28;40.82;99733.92;1739360;80;21223;-75
2021/03/22 06:06:36;;;;;;;32.50;16.80;;;;;;;8.30;40.57;99735.91;1772951;79;21125;-76
2021/03/22 06:09:37;;;;;;;22.17;14.13;;;;;;;8.33;40.63;99735.60;1769086;79;21594;-79
2021/03/22 06:12:41;;;;;;;28.87;13.93;;;;;;;8.39;40.54;99744.31;1746193;80;21112;-75
2021/03/22 06:15:24;;;;;;;26.25;14.20;;;;;;;8.39;40.46;99738.98;1744086;80;21121;-75
2021/03/22 06:18:01;;;;;;;22.87;15.20;;;;;;;8.42;40.60;99749.34;1767780;79;21783;-78
2021/03/22 06:20:34;;;;;;;26.68;15.60;;;;;;;8.36;40.57;99741.96;1720183;80;21153;-76
2021/03/22 06:23:21;;;;;;;22.67;13.48;;;;;;;8.34;40.74;99740.77;1767807;79;21141;-76
2021/03/22 06:25:57;;;;;;;20.80;13.88;;;;;;;8.36;40.76;99744.63;1735156;80;21129;-77
2021/03/22 06:28:28;;;;;;;25.85;15.65;;;;;;;8.35;40.85;99749.60;1766340;79;21148;-77
2021/03/22 06:31:06;;;;;;;21.85;14.30;;;;;;;8.31;40.91;99741.58;1738238;80;21133;-76
2021/03/22 06:33:44;;;;;;;27.65;14.20;;;;;;;8.23;40.99;99741.58;1734360;80;21672;-76
2021/03/22 06:36:17;;;;;;;25.68;14.83;;;;;;;8.14;41.15;99736.20;1744697;80;21549;-76
2021/03/22 06:38:51;;;;;;;21.33;13.98;;;;;;;8.14;41.19;99742.87;1759810;79;21105;-76
2021/03/22 06:41:49;;;;;;;25.23;15.80;;;;;;;8.12;41.26;99744.84;1735745;80;21133;-76
2021/03/22 06:44:22;;;;;;;26.12;15.85;;;;;;;8.06;41.41;99733.98;1740394;80;21158;-76
2021/03/22 06:47:03;;;;;;;30.48;16.95;;;;;;;8.04;41.67;99736.83;1737286;80;21149;-76
2021/03/22 06:49:35;;;;;;;34.95;18.30;;;;;;;8.12;41.65;99738.17;1739270;80;21141;-75
2021/03/22 06:52:11;;;;;;;35.30;19.85;;;;;;;8.20;41.69;99736.05;1766630;79;21117;-76
2021/03/22 06:54:43;;;;;;;37.03;19.57;;;;;;;8.26;41.66;99736.73;1765416;79;21153;-77
2021/03/22 06:57:22;;;;;;;33.67;18.10;;;;;;;8.33;41.64;99737.77;1735764;80;21165;-75
2021/03/22 07:00:12;;;;;;;28.90;17.37;;;;;;;8.41;41.60;99742.84;1763854;79;21169;-76
2021/03/22 07:02:43;;;;;;;24.45;14.93;;;;;;;8.43;41.55;99747.00;1766004;80;21121;-77
2021/03/22 07:05:28;;;;;;;24.98;16.10;;;;;;;8.31;41.66;99741.58;1764376;80;21097;-77
2021/03/22 07:08:21;;;;;;;26.97;16.85;;;;;;;8.28;41.78;99741.42;1700757;82;21162;-79
2021/03/22 07:11:08;;;;;;;22.93;15.88;;;;;;;8.31;41.94;99738.91;1744138;81;21168;-78
2021/03/22 07:13:37;;;;;;;21.93;15.68;;;;;;;8.39;42.03;99733.14;1748402;80;21192;-77
2021/03/22 07:16:21;;;;;;;32.60;18.77;;;;;;;8.41;41.78;99738.84;1748477;80;21132;-77
2021/03/22 07:19:15;;;;;;;33.73;18.52;;;;;;;8.08;42.30;99735.52;1746395;80;21140;-77
2021/03/22 07:21:54;;;;;;;39.08;20.27;;;;;;;8.03;42.79;99733.80;1748214;80;21161;-78
2021/03/22 07:24:33;;;;;;;36.13;19.25;;;;;;;8.10;43.07;99734.84;1747363;80;21129;-78
2021/03/22 07:27:21;;;;;;;38.35;21.97;;;;;;;8.21;42.97;99723.54;1748454;80;21194;-78
2021/03/22 07:30:35;;;;;;;61.90;31.20;;;;;;;8.33;42.92;99723.59;1766621;79;21121;-77
2021/03/22 07:36:28;;;;;;;34.35;19.95;;;;;;;8.85;42.39;99714.05;1864046;74;25646;-78
2021/03/22 07:39:12;;;;;;;28.75;15.95;;;;;;;9.07;42.01;99708.56;1839912;75;21255;-80
2021/03/22 07:42:11;;;;;;;37.58;21.20;;;;;;;9.36;41.54;99712.08;1838828;75;21502;-79
2021/03/22 07:45:38;;;;;;;34.85;19.10;;;;;;;9.50;41.22;99708.71;1808713;75;21231;-77
2021/03/22 07:48:35;;;;;;;30.65;16.55;;;;;;;9.65;41.55;99707.00;1743806;80;21673;-78
2021/03/22 07:51:38;;;;;;;34.18;17.65;;;;;;;9.89;42.71;99705.27;1753282;79;21203;-80
2021/03/22 07:54:34;;;;;;;123.05;48.48;;;;;;;10.25;42.75;99702.98;1750380;79;21222;-78
2021/03/22 07:57:35;;;;;;;132.27;54.95;;;;;;;10.53;40.81;99707.34;1724322;79;21921;-75
2021/03/22 08:01:04;;;;;;;105.47;45.25;;;;;;;10.52;40.99;99702.17;1724180;78;21464;-78
2021/03/22 08:04:16;;;;;;;68.12;30.40;;;;;;;10.72;41.69;99702.06;1771178;78;21984;-77
2021/03/22 08:07:58;;;;;;;62.30;27.32;;;;;;;11.35;40.65;99696.02;1899569;73;22740;-77
2021/03/22 08:11:08;;;;;;;134.80;53.60;;;;;;;11.54;39.36;99695.52;1868169;74;21181;-77
2021/03/22 08:14:02;;;;;;;146.25;62.08;;;;;;;11.72;38.87;99688.94;1872952;74;21128;-77
2021/03/22 08:17:27;;;;;;;134.35;61.30;;;;;;;11.91;38.29;99693.80;1777259;78;21240;-76
2021/03/22 08:20:37;;;;;;;94.28;43.20;;;;;;;12.14;38.23;99684.30;1844866;74;21105;-77
2021/03/22 08:23:27;;;;;;;90.42;40.65;;;;;;;12.42;37.83;99685.77;1857330;74;21541;-75
2021/03/22 08:26:44;;;;;;;74.60;34.78;;;;;;;12.75;37.20;99674.03;1854677;75;24050;-77
2021/03/22 08:29:31;;;;;;;78.37;35.83;;;;;;;12.85;37.14;99669.68;1828282;76;21094;-77
2021/03/22 08:32:25;;;;;;;66.62;29.23;;;;;;;12.95;36.70;99671.04;1742646;76;21958;-77
2021/03/22 08:35:23;;;;;;;40.05;23.18;;;;;;;13.05;36.39;99666.68;1830558;76;21002;-75
2021/03/22 08:38:13;;;;;;;29.10;18.23;;;;;;;13.03;36.37;99664.68;1831243;76;20968;-76
2021/03/22 08:41:00;;;;;;;45.23;24.00;;;;;;;13.16;36.34;99667.48;1717918;80;21169;-78
2021/03/22 08:43:54;;;;;;;28.47;18.07;;;;;;;13.43;35.90;99658.31;1751409;79;21133;-76
2021/03/22 08:46:46;;;;;;;70.57;31.75;;;;;;;13.79;35.39;99658.13;1789297;78;23155;-76
2021/03/22 08:49:53;;;;;;;55.25;24.43;;;;;;;13.93;34.68;99653.13;1753633;78;21496;-76
2021/03/22 08:53:03;;;;;;;30.17;17.90;;;;;;;14.11;34.42;99649.89;1783292;78;21465;-75
2021/03/22 08:56:01;;;;;;;41.57;20.50;;;;;;;14.32;34.05;99656.20;1753626;80;21193;-77
2021/03/22 08:58:53;;;;;;;41.98;19.48;;;;;;;14.17;34.17;99650.45;1755676;80;21228;-77
2021/03/22 09:02:29;;;;;;;80.47;30.32;;;;;;;14.19;34.17;99651.07;1855436;75;28970;-78
2021/03/22 09:05:55;;;;;;;;;;;;;;;;;;;;;
2021/03/22 09:10:18;;;;;;;34.45;17.27;;;;;;;14.15;33.75;99650.33;1785898;77;27079;-77
2021/03/22 09:13:27;;;;;;;;;;;;;;;14.14;33.75;99648.16;1726204;80;21193;-77
2021/03/22 09:16:45;;;;;;;37.98;16.60;;;;;;;14.16;33.37;99648.77;1696804;80;20287;-75
2021/03/22 09:19:23;;;;;;;38.95;17.55;;;;;;;14.38;33.12;99645.95;1736583;80;21157;-77
2021/03/22 09:22:04;;;;;;;63.02;21.42;;;;;;;14.23;33.76;99643.95;1725692;80;21220;-76
2021/03/22 09:24:44;;;;;;;77.25;28.75;;;;;;;14.18;32.92;99649.94;1719814;80;21144;-78
2021/03/22 09:27:20;;;;;;;52.67;23.65;;;;;;;13.95;33.31;99635.45;1689472;82;21202;-77
2021/03/22 09:30:08;;;;;;;87.85;33.18;;;;;;;13.38;34.10;99634.69;1702856;80;21161;-76
2021/03/22 09:32:41;;;;;;;56.88;26.93;;;;;;;13.11;34.64;99633.63;1734556;80;21134;-75
2021/03/22 09:35:21;;;;;;;34.05;20.17;;;;;;;13.03;34.84;99629.73;1725201;79;21381;-76
2021/03/22 09:38:45;;;;;;;31.48;14.28;;;;;;;13.08;34.97;99634.04;1744032;79;21647;-76
2021/03/22 09:41:13;;;;;;;20.12;12.00;;;;;;;13.03;34.61;99632.42;1754975;79;21222;-76
2021/03/22 09:43:43;;;;;;;18.02;11.70;;;;;;;13.01;34.55;99637.17;1773512;78;21153;-76
2021/03/22 09:46:19;;;;;;;16.30;11.55;;;;;;;13.14;34.23;99636.45;1778953;78;21140;-77
2021/03/22 09:48:47;;;;;;;18.20;11.53;;;;;;;13.16;34.37;99624.46;1777376;78;21628;-77
2021/03/22 09:51:23;;;;;;;21.05;11.08;;;;;;;13.32;33.81;99625.24;1776022;78;21113;-75
2021/03/22 09:53:57;;;;;;;16.50;10.58;;;;;;;13.83;33.23;99624.92;1697346;82;27049;-77
2021/03/22 09:56:43;;;;;;;19.35;11.83;;;;;;;14.01;32.93;99632.45;1682405;82;21184;-77
2021/03/22 09:59:35;;;;;;;20.50;13.00;;;;;;;13.97;33.10;99619.91;1711819;82;21229;-76
2021/03/22 10:02:36;;;;;;;20.70;12.60;;;;;;;14.20;33.03;99620.92;1687905;82;21121;-78
2021/03/22 10:05:20;;;;;;;20.10;11.95;;;;;;;14.28;32.56;99623.45;1676733;82;21176;-76
2021/03/22 10:08:22;;;;;;;15.70;11.00;;;;;;;14.23;32.97;99626.44;1673895;84;21124;-75
2021/03/22 10:11:09;;;;;;;20.12;12.07;;;;;;;14.29;32.95;99613.50;1632682;85;21185;-77
2021/03/22 10:13:47;;;;;;;17.45;13.35;;;;;;;14.32;32.81;99620.66;1675356;81;21156;-76
2021/03/22 10:16:22;;;;;;;19.95;12.45;;;;;;;14.01;32.93;99617.12;1711283;81;21148;-77
2021/03/22 10:19:02;;;;;;;17.92;12.60;;;;;;;14.04;33.18;99619.44;1717981;80;21824;-76
2021/03/22 10:21:35;;;;;;;24.37;12.23;;;;;;;13.94;33.43;99610.88;1748369;79;21157;-74
2021/03/22 10:24:35;;;;;;;18.62;12.00;;;;;;;13.99;33.28;99620.55;1753150;79;21143;-76
2021/03/22 10:27:24;;;;;;;24.75;13.38;;;;;;;13.97;33.18;99618.56;1755072;79;21625;-78
2021/03/22 10:30:17;;;;;;;19.17;11.68;;;;;;;13.99;32.91;99608.44;1755797;79;21161;-77
2021/03/22 10:33:06;;;;;;;19.98;12.60;;;;;;;13.96;33.18;99610.17;1754407;79;21696;-75
2021/03/22 10:35:53;;;;;;;24.47;14.95;;;;;;;13.93;33.19;99606.01;1715349;80;21150;-77
2021/03/22 10:38:33;;;;;;;25.12;13.60;;;;;;;13.89;33.03;99606.61;1711718;81;21195;-77
2021/03/22 10:41:04;;;;;;;19.50;13.70;;;;;;;13.84;33.28;99609.08;1712429;81;21687;-76
2021/03/22 10:43:39;;;;;;;40.00;21.20;;;;;;;13.78;33.28;99598.60;1712118;81;21633;-76
2021/03/22 10:46:27;;;;;;;39.50;19.70;;;;;;;13.77;33.41;99593.43;1712885;81;21137;-76
2021/03/22 10:49:16;;;;;;;30.65;12.85;;;;;;;13.42;34.07;99594.27;1709346;81;21568;-75
2021/03/22 10:51:51;;;;;;;37.88;20.88;;;;;;;13.35;34.03;99589.86;1685113;81;21136;-77
2021/03/22 10:54:49;;;;;;;47.03;19.55;;;;;;;13.58;33.76;99586.89;1689049;81;21153;-76
2021/03/22 10:57:39;;;;;;;41.83;19.65;;;;;;;13.75;33.25;99585.53;1667002;84;21163;-76
2021/03/22 11:03:36;;;;;;;16.45;11.53;;;;;;;13.59;33.11;99577.30;1684090;81;21161;-75
2021/03/22 11:06:43;;;;;;;15.55;11.40;;;;;;;13.53;33.33;99579.41;1711494;81;21164;-77
2021/03/22 11:09:52;;;;;;;25.32;12.15;;;;;;;13.50;33.48;99573.11;1703409;81;21226;-77
2021/03/22 11:12:25;;;;;;;19.00;11.33;;;;;;;13.47;33.22;99566.77;1666180;81;21184;-76
2021/03/22 11:15:09;;;;;;;21.90;11.33;;;;;;;13.47;33.50;99565.42;1711272;81;21761;-79
2021/03/22 11:17:39;;;;;;;17.65;11.80;;;;;;;13.23;33.95;99565.91;1688500;81;21152;-76
2021/03/22 11:20:08;;;;;;;24.63;11.75;;;;;;;13.03;34.38;99570.59;1636129;83;21145;-76
2021/03/22 11:25:34;;;;;;;18.70;12.37;;;;;;;13.00;34.35;99565.63;1665979;81;21157;-77
2021/03/22 11:28:10;;;;;;;19.23;10.80;;;;;;;13.05;34.27;99565.86;1715091;81;21630;-76
2021/03/22 11:31:01;;;;;;;21.62;11.88;;;;;;;13.07;34.10;99561.63;1710565;81;26349;-76
2021/03/22 11:33:43;;;;;;;17.67;11.45;;;;;;;13.11;33.94;99548.11;1689542;81;22305;-77
2021/03/22 11:36:19;;;;;;;13.13;10.10;;;;;;;13.17;33.63;99548.66;1677868;83;21191;-76
2021/03/22 11:38:59;;;;;;;15.63;9.80;;;;;;;13.22;33.61;99544.92;1713505;81;21711;-75
2021/03/22 11:41:38;;;;;;;22.02;9.53;;;;;;;13.27;33.15;99545.67;1710071;81;21181;-78
2021/03/22 11:44:36;;;;;;;11.70;8.78;;;;;;;13.32;32.43;99537.83;1709463;81;21145;-76
2021/03/22 11:47:43;;;;;;;15.20;9.03;;;;;;;13.36;31.90;99540.45;1715568;81;21185;-77
2021/03/22 11:50:32;;;;;;;16.20;8.65;;;;;;;13.37;31.65;99539.41;1713630;81;21716;-78
2021/03/22 11:53:19;;;;;;;15.53;8.60;;;;;;;13.66;30.98;99544.50;1710263;81;21604;-77
2021/03/22 11:56:10;;;;;;;;;;;;;;;;;;;;;
2021/03/22 11:58:43;;;;;;;13.13;9.58;;;;;;;13.77;30.75;99547.16;1853650;75;23007;-77
2021/03/22 12:01:27;;;;;;;14.43;10.00;;;;;;;13.73;30.74;99549.11;1816531;77;21208;-77
2021/03/22 12:04:11;;;;;;;18.73;10.48;;;;;;;13.77;30.78;99549.02;1812491;77;21755;-76
2021/03/22 12:07:06;;;;;;;24.92;10.13;;;;;;;13.76;30.88;99554.06;1813871;77;21237;-76
2021/03/22 12:09:35;;;;;;;12.13;8.90;;;;;;;13.73;30.79;99551.80;1817081;77;21208;-75
2021/03/22 12:12:13;;;;;;;14.28;8.53;;;;;;;13.69;30.52;99550.84;1788459;77;21189;-76
2021/03/22 12:14:41;;;;;;;14.78;7.70;;;;;;;13.67;30.21;99550.71;1817065;77;21683;-75
2021/03/22 12:17:21;;;;;;;17.82;9.25;;;;;;;13.65;29.45;99547.41;1819504;77;21995;-77
2021/03/22 12:19:51;;;;;;;18.55;9.10;;;;;;;13.66;29.31;99549.06;1816657;77;21152;-78
2021/03/22 12:22:21;;;;;;;22.52;10.78;;;;;;;13.64;29.40;99555.17;1790451;77;21125;-74
2021/03/22 12:24:50;;;;;;;16.77;10.00;;;;;;;13.62;29.70;99559.39;1818814;77;21969;-79
2021/03/22 12:27:20;;;;;;;14.85;10.30;;;;;;;13.59;30.01;99561.16;1760077;79;21134;-78
2021/03/22 12:29:49;;;;;;;15.60;10.53;;;;;;;13.26;30.50;99557.43;1768579;78;21137;-79
2021/03/22 12:32:24;;;;;;;17.45;10.82;;;;;;;13.18;31.15;99553.86;1754215;78;21145;-76
2021/03/22 12:34:57;;;;;;;13.65;10.35;;;;;;;13.15;31.67;99561.48;1765171;80;21622;-77